CheckWX is a tool to help pilots better visualize weather data.  It is not intended as a substitute for an official pre-flight weather briefing.

15:39:52 UTC

ENSO METAR
Stord Airport
Leirvik, Norway
Current

3 hours ago

ENSO 161250Z 26006KT 210V300 9999 FEW030 21/13 Q1015
Observed
Jul-16 @ 12:50 UTC
Wind
  • 260° at 6 KTS
Visibility
10,000+ meters
Flight Rules
VFR
Cloud Levels
  • Few at 3,000' AGL
Temperature
21°C / 70°F
Dewpoint
13°C / 55°F
Humidity
60%
Altimeter
29.97" Hg
Pressure
1014.92 hPa
Previous

3 hours ago

ENSO 161220Z 25006KT 210V290 9999 FEW030 SCT190 19/12 Q1015
Observed
Jul-16 @ 12:20 UTC
Wind
  • 250° at 6 KTS
Visibility
10,000+ meters
Flight Rules
VFR
Cloud Levels
  • Few at 3,000' AGL
  • Scattered at 19,000' AGL
Temperature
19°C / 66°F
Dewpoint
12°C / 54°F
Humidity
64%
Altimeter
29.97" Hg
Pressure
1014.92 hPa
Previous

4 hours ago

ENSO 161150Z 24006KT 190V270 9999 FEW030 SCT190 18/11 Q1015
Observed
Jul-16 @ 11:50 UTC
Wind
  • 240° at 6 KTS
Visibility
10,000+ meters
Flight Rules
VFR
Cloud Levels
  • Few at 3,000' AGL
  • Scattered at 19,000' AGL
Temperature
18°C / 64°F
Dewpoint
11°C / 52°F
Humidity
64%
Altimeter
29.97" Hg
Pressure
1014.92 hPa